Time;durP1;ratioP1;P1;durP2;ratioP2;P2;SDS_P1;SDS_P2;PMS_P1;PMS_P2;Temp;Humidity;BMP_temperature;BMP_pressure;BME280_temperature;BME280_humidity;BME280_pressure;Samples;Min_cycle;Max_cycle;Signal;HPM_P1;HPM_P2
2023/09/28 00:01:37;;;;;;;6.40;5.78;;;18.50;99.90;;;;;;5064051;28;20412;-61
2023/09/28 00:04:06;;;;;;;7.18;5.20;;;18.50;99.90;;;;;;5067238;28;20044;-61
2023/09/28 00:06:31;;;;;;;8.43;5.53;;;18.60;99.90;;;;;;5067844;28;20052;-61
2023/09/28 00:08:57;;;;;;;5.60;5.10;;;18.60;99.90;;;;;;5062407;28;20044;-61
2023/09/28 00:11:23;;;;;;;;;;;18.60;99.90;;;;;;5069696;28;20036;-60
2023/09/28 00:13:49;;;;;;;10.45;4.72;;;18.60;99.90;;;;;;5063960;28;20440;-61
2023/09/28 00:16:14;;;;;;;9.65;5.55;;;18.70;99.90;;;;;;5067382;28;20037;-61
2023/09/28 00:18:40;;;;;;;9.75;4.80;;;18.70;99.90;;;;;;5067355;28;20414;-61
2023/09/28 00:21:06;;;;;;;9.55;5.03;;;18.70;99.90;;;;;;5061139;28;20132;-60
2023/09/28 00:23:32;;;;;;;8.23;4.97;;;18.70;99.90;;;;;;5067712;28;20064;-60
2023/09/28 00:25:58;;;;;;;7.68;5.00;;;18.70;99.90;;;;;;5068733;28;20566;-59
2023/09/28 00:28:23;;;;;;;5.78;4.88;;;18.80;99.90;;;;;;5064719;28;20178;-61
2023/09/28 00:30:49;;;;;;;6.75;4.60;;;18.80;99.90;;;;;;5062529;28;20472;-60
2023/09/28 00:33:15;;;;;;;5.28;4.78;;;18.70;99.90;;;;;;5067836;28;20056;-60
2023/09/28 00:35:40;;;;;;;8.43;4.88;;;18.70;99.90;;;;;;5066824;28;20046;-59
2023/09/28 00:38:07;;;;;;;6.07;4.80;;;18.70;99.90;;;;;;5068720;28;20044;-61
2023/09/28 00:40:34;;;;;;;6.05;4.93;;;18.70;99.90;;;;;;5067997;28;20036;-61
2023/09/28 00:43:00;;;;;;;7.18;5.13;;;18.70;99.90;;;;;;5062577;28;20086;-61
2023/09/28 00:45:27;;;;;;;6.75;4.93;;;18.70;99.90;;;;;;5067555;28;20115;-61
2023/09/28 00:48:04;;;;;;;5.22;4.63;;;18.70;99.90;;;;;;5070181;28;20075;-61
2023/09/28 00:50:33;;;;;;;5.57;4.55;;;18.70;99.90;;;;;;5059672;28;20032;-61
2023/09/28 00:53:06;;;;;;;7.68;5.20;;;18.70;99.90;;;;;;5054426;28;20040;-60
2023/09/28 00:55:33;;;;;;;5.00;4.55;;;18.70;99.90;;;;;;5063219;28;20124;-61
2023/09/28 00:58:05;;;;;;;5.07;4.68;;;18.70;99.90;;;;;;5065129;28;20411;-61
2023/09/28 01:00:34;;;;;;;6.65;4.72;;;18.70;99.90;;;;;;5066957;28;20422;-61
2023/09/28 01:03:02;;;;;;;8.18;5.18;;;18.80;99.90;;;;;;5059411;28;20040;-61
2023/09/28 01:05:31;;;;;;;10.13;5.40;;;18.80;99.90;;;;;;5062737;28;20047;-61
2023/09/28 01:08:05;;;;;;;6.20;5.18;;;18.80;99.90;;;;;;5061657;28;20086;-61
2023/09/28 01:10:35;;;;;;;6.43;4.93;;;18.80;99.90;;;;;;5063344;28;20037;-59
2023/09/28 01:13:11;;;;;;;6.57;4.85;;;18.80;99.90;;;;;;5064827;28;20084;-58
2023/09/28 01:15:41;;;;;;;8.38;4.70;;;18.80;99.90;;;;;;5062845;28;20068;-59
2023/09/28 01:18:17;;;;;;;4.95;4.55;;;18.80;99.90;;;;;;5052625;28;20136;-60
2023/09/28 01:20:47;;;;;;;6.05;4.60;;;18.80;99.90;;;;;;5051863;28;20037;-60
2023/09/28 01:23:13;;;;;;;9.18;5.38;;;18.80;99.90;;;;;;5053803;28;20047;-60
2023/09/28 01:25:39;;;;;;;6.43;4.43;;;18.80;99.90;;;;;;5053276;28;20408;-61
2023/09/28 01:28:10;;;;;;;4.68;4.20;;;18.80;99.90;;;;;;5056879;28;20091;-62
2023/09/28 01:30:35;;;;;;;4.60;4.20;;;18.90;99.90;;;;;;5055440;28;20119;-59
2023/09/28 01:33:02;;;;;;;5.28;4.13;;;18.90;99.90;;;;;;5054252;28;20128;-61
2023/09/28 01:35:29;;;;;;;5.95;4.45;;;18.90;99.90;;;;;;5057343;28;20043;-60
2023/09/28 01:38:09;;;;;;;9.60;4.78;;;18.90;99.90;;;;;;5056484;28;20032;-60
2023/09/28 01:40:35;;;;;;;4.95;4.22;;;18.90;99.90;;;;;;5057151;28;20499;-56
2023/09/28 01:43:00;;;;;;;6.15;4.38;;;18.90;99.90;;;;;;5056538;28;20032;-57
2023/09/28 01:45:26;;;;;;;7.60;4.40;;;18.90;99.90;;;;;;5059373;28;20024;-57
2023/09/28 01:47:52;;;;;;;5.13;4.55;;;18.90;99.90;;;;;;5058740;28;20376;-59
2023/09/28 01:50:18;;;;;;;5.53;4.28;;;18.90;99.90;;;;;;5058115;28;20430;-56
2023/09/28 01:52:44;;;;;;;6.88;5.00;;;18.90;99.90;;;;;;5054655;28;20041;-58
2023/09/28 01:55:09;;;;;;;8.18;4.30;;;18.90;99.90;;;;;;5055584;28;20118;-59
2023/09/28 01:57:35;;;;;;;5.72;4.57;;;18.80;99.90;;;;;;5050705;28;20124;-58
2023/09/28 02:00:05;;;;;;;7.07;4.78;;;18.80;99.90;;;;;;5052252;28;20093;-60
2023/09/28 02:02:36;;;;;;;4.95;4.00;;;18.80;99.90;;;;;;5053073;28;20041;-57
2023/09/28 02:05:03;;;;;;;8.45;5.05;;;18.80;99.90;;;;;;5053936;28;20094;-59
2023/09/28 02:07:28;;;;;;;8.13;5.03;;;18.80;99.90;;;;;;5054212;28;20090;-56
2023/09/28 02:09:54;;;;;;;7.05;4.85;;;18.80;99.90;;;;;;5055373;28;20522;-58
2023/09/28 02:12:19;;;;;;;9.80;4.78;;;18.70;99.90;;;;;;5058406;28;20105;-59
2023/09/28 02:14:45;;;;;;;7.03;4.60;;;18.70;99.90;;;;;;5058855;28;20522;-60
2023/09/28 02:17:11;;;;;;;5.63;4.93;;;18.70;99.90;;;;;;5056746;28;20093;-59
2023/09/28 02:19:38;;;;;;;6.30;5.60;;;18.70;99.90;;;;;;5055726;28;20028;-59
2023/09/28 02:22:04;;;;;;;6.53;5.25;;;18.70;99.90;;;;;;5054938;28;20064;-60
2023/09/28 02:24:30;;;;;;;6.65;4.95;;;18.60;99.90;;;;;;5060182;28;20036;-59
2023/09/28 02:26:56;;;;;;;;;;;18.60;99.90;;;;;;5059675;28;20043;-59
2023/09/28 02:29:22;;;;;;;5.57;4.97;;;18.50;99.90;;;;;;5059014;28;19924;-59
2023/09/28 02:31:48;;;;;;;;;;;18.50;99.90;;;;;;5060674;28;20035;-59
2023/09/28 02:34:13;;;;;;;9.40;5.07;;;18.50;99.90;;;;;;5057786;28;20333;-58
2023/09/28 02:36:40;;;;;;;8.48;4.63;;;18.50;99.90;;;;;;5051931;28;20033;-57
2023/09/28 02:39:07;;;;;;;6.80;5.15;;;18.40;99.90;;;;;;5053000;28;20453;-59
2023/09/28 02:41:32;;;;;;;7.53;4.55;;;18.40;99.90;;;;;;5053261;28;20495;-59
2023/09/28 02:43:58;;;;;;;6.57;5.90;;;18.30;99.90;;;;;;5052181;28;20119;-58
2023/09/28 02:46:26;;;;;;;10.05;5.28;;;18.30;99.90;;;;;;5053883;28;20445;-61
2023/09/28 02:48:51;;;;;;;6.85;5.60;;;18.30;99.90;;;;;;5054119;28;20045;-57
2023/09/28 02:51:17;;;;;;;10.27;5.53;;;18.20;99.90;;;;;;5053169;28;20102;-56
2023/09/28 02:53:43;;;;;;;9.20;5.35;;;18.10;99.90;;;;;;5056071;28;20072;-59
2023/09/28 02:56:09;;;;;;;6.75;5.97;;;18.10;99.90;;;;;;5056968;28;20091;-59
2023/09/28 02:58:35;;;;;;;6.15;4.90;;;18.10;99.90;;;;;;5056583;28;20036;-58
2023/09/28 03:01:01;;;;;;;7.18;5.15;;;18.10;99.90;;;;;;5054070;28;20438;-61
2023/09/28 03:03:27;;;;;;;8.13;5.70;;;18.00;99.90;;;;;;5059417;28;20033;-60
2023/09/28 03:05:56;;;;;;;6.85;5.43;;;18.00;99.90;;;;;;5058778;28;20070;-59
2023/09/28 03:08:22;;;;;;;9.77;6.15;;;17.90;99.90;;;;;;5057148;28;20037;-59
2023/09/28 03:10:48;;;;;;;7.50;5.65;;;17.90;99.90;;;;;;5056864;28;20040;-59
2023/09/28 03:13:13;;;;;;;6.05;4.70;;;17.90;99.90;;;;;;5055923;28;20504;-58
2023/09/28 03:15:43;;;;;;;6.72;5.43;;;17.90;99.90;;;;;;5055919;28;20120;-59
2023/09/28 03:18:09;;;;;;;8.35;5.47;;;17.80;99.90;;;;;;5055276;28;20041;-60
2023/09/28 03:20:35;;;;;;;;;;;17.80;99.90;;;;;;5055867;28;20129;-59
2023/09/28 03:23:01;;;;;;;7.35;5.35;;;17.80;99.90;;;;;;5054151;28;20419;-58
2023/09/28 03:25:26;;;;;;;7.93;5.45;;;17.70;99.90;;;;;;5057464;28;20479;-59
2023/09/28 03:27:55;;;;;;;6.18;4.82;;;17.70;99.90;;;;;;5057913;28;20036;-59
2023/09/28 03:30:23;;;;;;;6.47;5.50;;;17.70;99.90;;;;;;5060707;28;20101;-59
2023/09/28 03:32:49;;;;;;;7.18;6.03;;;17.70;99.90;;;;;;5057352;28;20037;-59
2023/09/28 03:35:16;;;;;;;7.60;5.40;;;17.70;99.90;;;;;;5061627;28;20068;-58
2023/09/28 03:37:42;;;;;;;8.40;4.80;;;17.60;99.90;;;;;;5058875;28;20048;-59
2023/09/28 03:40:10;;;;;;;6.60;4.75;;;17.60;99.90;;;;;;5059197;28;20282;-59
2023/09/28 03:42:50;;;;;;;7.95;4.90;;;17.60;99.90;;;;;;5061103;28;20082;-58
2023/09/28 03:45:24;;;;;;;6.03;5.30;;;17.50;99.90;;;;;;5059762;28;20041;-57
2023/09/28 03:47:51;;;;;;;5.68;4.38;;;17.50;99.90;;;;;;5059273;28;20108;-58
2023/09/28 03:50:17;;;;;;;7.80;5.57;;;17.40;99.90;;;;;;5059900;28;20041;-60
2023/09/28 03:52:43;;;;;;;;;;;17.40;99.90;;;;;;5056447;28;20094;-60
2023/09/28 03:55:11;;;;;;;5.05;4.60;;;17.40;99.90;;;;;;5057052;28;20348;-59
2023/09/28 03:57:38;;;;;;;6.97;5.28;;;17.40;99.90;;;;;;5054155;28;20151;-58
2023/09/28 04:00:06;;;;;;;5.22;4.72;;;17.40;99.90;;;;;;5057300;28;20381;-58
2023/09/28 04:02:32;;;;;;;9.43;5.50;;;17.40;99.90;;;;;;5058325;28;20071;-59
2023/09/28 04:04:58;;;;;;;6.82;5.60;;;17.40;99.90;;;;;;5056418;28;20099;-57
2023/09/28 04:07:24;;;;;;;8.27;5.20;;;17.40;99.90;;;;;;5054816;28;20520;-59
2023/09/28 04:09:50;;;;;;;6.90;5.43;;;17.30;99.90;;;;;;5058729;28;20411;-59
2023/09/28 04:12:16;;;;;;;9.68;5.20;;;17.30;99.90;;;;;;5059802;28;20029;-59
2023/09/28 04:14:41;;;;;;;8.23;4.70;;;17.30;99.90;;;;;;5058708;28;20495;-59
2023/09/28 04:17:07;;;;;;;9.90;4.68;;;17.20;99.90;;;;;;5057855;28;20065;-59
2023/09/28 04:19:33;;;;;;;8.35;6.28;;;17.20;99.90;;;;;;5061401;28;20036;-59
2023/09/28 04:21:59;;;;;;;8.15;5.03;;;17.10;99.90;;;;;;5060609;28;20047;-58
2023/09/28 04:24:24;;;;;;;7.00;5.63;;;17.10;99.90;;;;;;5058366;28;20037;-58
2023/09/28 04:26:51;;;;;;;6.78;5.50;;;17.10;99.90;;;;;;5063653;28;20051;-59
2023/09/28 04:29:17;;;;;;;8.77;5.65;;;17.10;99.90;;;;;;5060159;28;20055;-58
2023/09/28 04:31:43;;;;;;;5.60;4.60;;;17.10;99.90;;;;;;5055162;28;20151;-57
2023/09/28 04:34:12;;;;;;;6.97;5.03;;;17.10;99.90;;;;;;5053045;28;20110;-61
2023/09/28 04:36:38;;;;;;;8.55;5.55;;;17.00;99.90;;;;;;5054554;28;20041;-59
2023/09/28 04:39:05;;;;;;;7.60;5.65;;;17.00;99.90;;;;;;5056363;28;20527;-59
2023/09/28 04:41:31;;;;;;;7.35;6.57;;;17.00;99.90;;;;;;5056667;28;20080;-58
2023/09/28 04:43:58;;;;;;;10.63;6.60;;;17.00;99.90;;;;;;5052572;28;20415;-58
2023/09/28 04:46:24;;;;;;;12.65;6.07;;;17.00;99.90;;;;;;5055697;28;20105;-59
2023/09/28 04:48:49;;;;;;;6.75;5.25;;;16.90;99.90;;;;;;5056988;28;20067;-59
2023/09/28 04:51:15;;;;;;;6.65;5.43;;;16.90;99.90;;;;;;5058417;28;20045;-59
2023/09/28 04:53:41;;;;;;;7.63;5.78;;;16.90;99.90;;;;;;5056048;28;20041;-57
2023/09/28 04:56:11;;;;;;;;;;;16.90;99.90;;;;;;5056137;28;20033;-60
2023/09/28 04:58:36;;;;;;;7.95;6.05;;;16.90;99.90;;;;;;5057244;28;19916;-60
2023/09/28 05:01:02;;;;;;;9.60;5.68;;;16.90;99.90;;;;;;5059539;28;20102;-60
2023/09/28 05:03:28;;;;;;;9.20;5.63;;;16.90;99.90;;;;;;5061453;28;20036;-60
2023/09/28 05:05:53;;;;;;;6.57;5.97;;;16.90;99.90;;;;;;5064768;28;20482;-57
2023/09/28 05:08:19;;;;;;;8.57;6.05;;;16.90;99.90;;;;;;5060464;28;20025;-58
2023/09/28 05:10:44;;;;;;;9.05;5.75;;;16.80;99.90;;;;;;5058596;28;20044;-57
2023/09/28 05:13:13;;;;;;;7.05;6.35;;;16.80;99.90;;;;;;5053103;28;20128;-59
2023/09/28 05:15:38;;;;;;;9.35;7.07;;;16.80;99.90;;;;;;5052929;28;20388;-59
2023/09/28 05:18:04;;;;;;;8.25;5.70;;;16.80;99.90;;;;;;5057491;28;20047;-58
2023/09/28 05:20:30;;;;;;;10.80;6.72;;;16.80;99.90;;;;;;5054310;28;20091;-58
2023/09/28 05:22:56;;;;;;;7.95;6.25;;;16.80;99.90;;;;;;5053636;28;20126;-60
2023/09/28 05:25:22;;;;;;;9.00;6.65;;;16.80;99.90;;;;;;5051445;28;20028;-59
2023/09/28 05:27:48;;;;;;;8.88;5.93;;;16.80;99.90;;;;;;5053418;28;20025;-59
2023/09/28 05:30:14;;;;;;;7.53;5.80;;;16.80;99.90;;;;;;5054100;28;20037;-59
2023/09/28 05:32:39;;;;;;;;;;;16.70;99.90;;;;;;5055235;28;20029;-59
2023/09/28 05:35:06;;;;;;;7.63;5.70;;;16.70;99.90;;;;;;5064352;28;20002;-59
2023/09/28 05:37:32;;;;;;;7.07;5.88;;;16.70;99.90;;;;;;5060862;28;20051;-57
2023/09/28 05:40:04;;;;;;;6.20;5.60;;;16.70;99.90;;;;;;5058148;28;20053;-59
2023/09/28 05:42:34;;;;;;;8.85;6.28;;;16.70;99.90;;;;;;5055515;28;20423;-57
2023/09/28 05:45:00;;;;;;;10.50;6.82;;;16.70;99.90;;;;;;5052824;28;20211;-58
2023/09/28 05:47:26;;;;;;;;;;;16.70;99.90;;;;;;5058609;28;20033;-60
2023/09/28 05:49:52;;;;;;;6.80;5.53;;;16.50;99.90;;;;;;5064265;28;19923;-59
2023/09/28 05:52:18;;;;;;;11.20;6.32;;;16.60;99.90;;;;;;5066863;28;20119;-60
2023/09/28 05:54:45;;;;;;;8.32;6.53;;;16.60;99.90;;;;;;5053353;28;20053;-60
2023/09/28 05:57:13;;;;;;;10.30;6.85;;;16.60;99.90;;;;;;5064471;28;20496;-60
2023/09/28 05:59:38;;;;;;;8.43;6.68;;;16.60;99.90;;;;;;5069854;28;20068;-59
2023/09/28 06:02:04;;;;;;;9.70;5.85;;;16.60;99.90;;;;;;5067807;28;20079;-60
2023/09/28 06:04:30;;;;;;;12.15;6.72;;;16.70;99.90;;;;;;5069699;28;20403;-57
2023/09/28 06:06:56;;;;;;;9.82;5.82;;;16.80;99.90;;;;;;5069215;28;20456;-59
2023/09/28 06:09:22;;;;;;;;;;;16.80;99.90;;;;;;5070013;28;20913;-60
2023/09/28 06:11:48;;;;;;;9.30;4.35;;;17.00;99.90;;;;;;5069892;28;19967;-59
2023/09/28 06:14:15;;;;;;;7.80;3.80;;;17.10;99.90;;;;;;5067920;28;20072;-59
2023/09/28 06:16:42;;;;;;;10.10;3.47;;;17.30;99.90;;;;;;5065828;28;20049;-59
2023/09/28 06:19:08;;;;;;;8.88;3.72;;;17.40;99.90;;;;;;5062230;28;20068;-59
2023/09/28 06:21:35;;;;;;;7.13;3.25;;;17.50;99.90;;;;;;5055421;28;20051;-59
2023/09/28 06:24:01;;;;;;;;;;;17.70;99.90;;;;;;5054126;28;20045;-60
2023/09/28 06:26:27;;;;;;;8.63;3.70;;;17.80;99.90;;;;;;5057188;28;19950;-57
2023/09/28 06:28:52;;;;;;;11.65;2.80;;;17.80;99.90;;;;;;5066109;28;20037;-60
2023/09/28 06:31:19;;;;;;;10.02;3.08;;;17.80;99.90;;;;;;5066597;28;20530;-59
2023/09/28 06:33:47;;;;;;;12.60;4.15;;;17.80;99.90;;;;;;5056397;28;20495;-58
2023/09/28 06:36:14;;;;;;;8.77;3.67;;;17.90;99.90;;;;;;5046375;28;20038;-59
2023/09/28 06:38:40;;;;;;;13.80;3.65;;;18.00;99.90;;;;;;5044474;28;20083;-60
2023/09/28 06:41:05;;;;;;;11.30;3.40;;;18.00;99.90;;;;;;5048113;28;20527;-59
2023/09/28 06:43:31;;;;;;;12.75;3.22;;;18.00;99.90;;;;;;5052854;28;20040;-59
2023/09/28 06:45:58;;;;;;;28.65;3.45;;;18.00;99.90;;;;;;5052081;28;20041;-59
2023/09/28 06:48:24;;;;;;;14.63;4.18;;;17.90;99.90;;;;;;5050079;28;20053;-59
2023/09/28 06:50:50;;;;;;;19.60;4.07;;;17.90;99.90;;;;;;5045814;28;20041;-58
2023/09/28 06:53:16;;;;;;;14.77;3.85;;;17.90;99.90;;;;;;5055984;28;20119;-57
2023/09/28 06:55:44;;;;;;;24.98;3.80;;;17.90;99.90;;;;;;5054189;28;20045;-58
2023/09/28 06:58:13;;;;;;;44.80;6.13;;;17.90;99.90;;;;;;5056725;28;20043;-59
2023/09/28 07:00:39;;;;;;;13.43;3.65;;;17.90;99.90;;;;;;5055645;28;20029;-59
2023/09/28 07:03:05;;;;;;;;;;;17.90;99.90;;;;;;5055484;28;20037;-58
2023/09/28 07:05:33;;;;;;;17.98;3.90;;;17.90;99.90;;;;;;5056897;28;19920;-60
2023/09/28 07:08:00;;;;;;;16.13;3.88;;;17.90;99.90;;;;;;5057732;28;20059;-60
2023/09/28 07:10:26;;;;;;;14.32;3.35;;;18.00;99.90;;;;;;5056022;28;20033;-60
2023/09/28 07:12:52;;;;;;;20.95;4.25;;;18.00;99.90;;;;;;5059565;28;20119;-61
2023/09/28 07:15:18;;;;;;;19.30;4.65;;;18.10;99.90;;;;;;5060809;28;20613;-60
2023/09/28 07:17:44;;;;;;;16.95;4.50;;;18.10;99.90;;;;;;5056896;28;20045;-61
2023/09/28 07:20:14;;;;;;;14.35;3.75;;;18.10;99.90;;;;;;5053715;28;20428;-60
2023/09/28 07:22:40;;;;;;;19.67;3.97;;;18.20;99.90;;;;;;5052617;28;20029;-59
2023/09/28 07:25:06;;;;;;;19.88;4.55;;;18.20;99.90;;;;;;5052219;28;20519;-60
2023/09/28 07:27:32;;;;;;;15.98;4.45;;;18.20;99.90;;;;;;5048009;28;20112;-59
2023/09/28 07:29:59;;;;;;;13.90;3.30;;;18.30;99.90;;;;;;5047743;28;20123;-60
2023/09/28 07:32:26;;;;;;;11.07;3.25;;;18.30;99.90;;;;;;5052947;28;20044;-60
2023/09/28 07:34:52;;;;;;;13.65;4.55;;;18.30;99.90;;;;;;5049382;28;20052;-59
2023/09/28 07:37:18;;;;;;;14.02;4.75;;;18.30;99.90;;;;;;5052618;28;20047;-59
2023/09/28 07:39:44;;;;;;;9.73;4.75;;;18.40;99.90;;;;;;5054826;28;20457;-59
2023/09/28 07:42:10;;;;;;;10.77;6.35;;;18.40;99.90;;;;;;5056551;28;20041;-58
2023/09/28 07:44:35;;;;;;;15.77;6.63;;;18.40;99.90;;;;;;5054970;28;20365;-60
2023/09/28 07:47:01;;;;;;;8.38;6.30;;;18.40;99.90;;;;;;5049164;28;20041;-60
2023/09/28 07:49:27;;;;;;;11.43;6.95;;;18.40;99.90;;;;;;5057275;28;20460;-59
2023/09/28 07:51:55;;;;;;;9.80;6.43;;;18.40;99.90;;;;;;5057153;28;20059;-59
2023/09/28 07:54:21;;;;;;;13.55;6.53;;;18.40;99.90;;;;;;5059327;28;20049;-58
2023/09/28 07:56:47;;;;;;;;;;;18.40;99.90;;;;;;5057475;28;20128;-59
2023/09/28 07:59:13;;;;;;;17.50;5.80;;;18.50;99.90;;;;;;5059683;28;19921;-58
2023/09/28 08:01:39;;;;;;;19.15;6.72;;;18.60;99.90;;;;;;5057538;28;20082;-57
2023/09/28 08:04:05;;;;;;;;;;;18.60;99.90;;;;;;5056739;28;21251;-58
2023/09/28 08:06:32;;;;;;;16.02;5.20;;;18.70;99.90;;;;;;5055623;28;19971;-59
2023/09/28 08:08:58;;;;;;;21.35;5.25;;;18.80;99.90;;;;;;5052230;28;20090;-61
2023/09/28 08:11:24;;;;;;;17.38;5.32;;;18.80;99.90;;;;;;5053930;28;20048;-59
2023/09/28 08:13:50;;;;;;;19.30;5.68;;;18.90;99.90;;;;;;5054296;28;20029;-59
2023/09/28 08:16:16;;;;;;;18.33;5.53;;;19.00;99.90;;;;;;5055091;28;20032;-58
2023/09/28 08:18:42;;;;;;;16.88;4.53;;;19.10;99.90;;;;;;5054061;28;20040;-58
2023/09/28 08:21:08;;;;;;;18.20;4.53;;;19.10;99.90;;;;;;5057500;28;20037;-60
2023/09/28 08:23:33;;;;;;;;;;;19.20;99.90;;;;;;5058565;28;20066;-59
2023/09/28 08:25:59;;;;;;;68.32;7.75;;;19.30;99.90;;;;;;5064766;28;19916;-59
2023/09/28 08:28:25;;;;;;;;;;;19.30;99.90;;;;;;5057010;28;20046;-58
2023/09/28 08:30:53;;;;;;;43.05;6.75;;;19.30;99.90;;;;;;5056706;28;19920;-58
2023/09/28 08:33:19;;;;;;;18.63;4.97;;;19.40;99.90;;;;;;5057361;28;20448;-59
2023/09/28 08:35:48;;;;;;;20.67;4.78;;;19.50;99.90;;;;;;5056978;28;20071;-59
2023/09/28 08:38:15;;;;;;;58.15;8.93;;;19.40;99.90;;;;;;5057440;28;20040;-59
2023/09/28 08:40:42;;;;;;;25.63;5.30;;;19.40;99.90;;;;;;5058629;28;20036;-58
2023/09/28 08:43:11;;;;;;;26.75;4.85;;;19.40;99.90;;;;;;5058143;28;20033;-60
2023/09/28 08:45:41;;;;;;;18.67;4.25;;;19.50;99.90;;;;;;5059079;28;20399;-58
2023/09/28 08:48:09;;;;;;;23.60;4.78;;;19.40;99.90;;;;;;5048737;28;20090;-59
2023/09/28 08:50:38;;;;;;;28.95;5.20;;;19.30;99.90;;;;;;5056810;28;20471;-61
2023/09/28 08:53:08;;;;;;;18.67;4.55;;;19.30;99.90;;;;;;5056798;28;21157;-59
2023/09/28 08:55:34;;;;;;;17.60;5.18;;;19.30;99.90;;;;;;5053641;28;20032;-59
2023/09/28 08:58:01;;;;;;;32.35;4.93;;;19.20;99.90;;;;;;5053946;28;20044;-59
2023/09/28 09:00:26;;;;;;;21.05;4.70;;;19.20;99.90;;;;;;5049822;28;20048;-59
2023/09/28 09:02:52;;;;;;;26.40;5.43;;;19.20;99.90;;;;;;5052011;28;20064;-58
2023/09/28 09:05:18;;;;;;;;;;;19.10;99.90;;;;;;5050488;28;20032;-61
2023/09/28 09:07:44;;;;;;;21.50;3.90;;;19.10;99.90;;;;;;5052149;28;20007;-57
2023/09/28 09:10:17;;;;;;;24.40;5.72;;;19.10;99.90;;;;;;5051678;28;20045;-60
2023/09/28 09:12:43;;;;;;;21.75;4.55;;;19.20;99.90;;;;;;5051024;28;20033;-59
2023/09/28 09:15:09;;;;;;;26.13;5.22;;;19.30;99.90;;;;;;5056324;28;20407;-59
2023/09/28 09:17:35;;;;;;;;;;;19.30;99.90;;;;;;5055289;28;20395;-59
2023/09/28 09:20:03;;;;;;;23.23;4.10;;;19.40;99.90;;;;;;5057378;28;19921;-57
2023/09/28 09:22:29;;;;;;;27.95;3.92;;;19.50;99.90;;;;;;5058312;28;20414;-59
2023/09/28 09:24:56;;;;;;;25.98;4.65;;;19.50;99.90;;;;;;5058294;28;20039;-59
2023/09/28 09:27:28;;;;;;;26.48;5.32;;;19.50;99.90;;;;;;5059333;28;20047;-59
2023/09/28 09:29:58;;;;;;;22.58;4.80;;;19.40;99.90;;;;;;5056468;28;20343;-59
2023/09/28 09:32:25;;;;;;;26.58;4.55;;;19.40;99.90;;;;;;5057272;28;20036;-59
2023/09/28 09:34:52;;;;;;;18.05;4.32;;;19.60;99.90;;;;;;5053047;28;20120;-59
2023/09/28 09:37:19;;;;;;;18.63;4.28;;;19.60;99.90;;;;;;5060032;28;20116;-59
2023/09/28 09:39:45;;;;;;;25.55;5.25;;;19.60;99.90;;;;;;5062421;28;20546;-61
2023/09/28 09:42:11;;;;;;;;;;;19.60;99.90;;;;;;5063878;28;20120;-60
2023/09/28 09:44:37;;;;;;;32.60;5.60;;;19.70;99.90;;;;;;5055332;28;20481;-61
2023/09/28 09:47:03;;;;;;;27.45;4.93;;;19.70;99.90;;;;;;5053074;28;20120;-59
2023/09/28 09:49:29;;;;;;;24.30;4.85;;;19.70;99.90;;;;;;5049747;28;20107;-60
2023/09/28 09:51:58;;;;;;;;;;;19.70;99.90;;;;;;5048351;28;20381;-60
2023/09/28 09:54:23;;;;;;;39.83;5.75;;;19.70;99.90;;;;;;5045235;28;20378;-60
2023/09/28 09:56:50;;;;;;;28.45;5.13;;;19.80;99.90;;;;;;5046824;28;20041;-59
2023/09/28 09:59:17;;;;;;;25.73;4.32;;;19.90;99.90;;;;;;5050028;28;20034;-59
2023/09/28 10:01:47;;;;;;;15.30;4.72;;;20.00;99.90;;;;;;5050877;28;20056;-59
2023/09/28 10:04:16;;;;;;;24.42;4.57;;;20.20;99.90;;;;;;5054052;28;20454;-61
2023/09/28 10:06:47;;;;;;;27.75;4.57;;;20.30;99.90;;;;;;5049916;28;20045;-61
2023/09/28 10:09:16;;;;;;;21.63;3.88;;;20.30;99.90;;;;;;5054593;28;20065;-60
2023/09/28 10:11:43;;;;;;;24.88;4.43;;;20.30;99.90;;;;;;5054866;28;20047;-60
2023/09/28 10:14:10;;;;;;;17.70;4.03;;;20.30;99.90;;;;;;5052599;28;20115;-60
2023/09/28 10:16:37;;;;;;;22.13;4.13;;;20.30;99.90;;;;;;5055536;28;20107;-59
2023/09/28 10:19:05;;;;;;;18.83;3.78;;;20.30;99.90;;;;;;5053573;28;20123;-59
2023/09/28 10:21:38;;;;;;;24.63;4.72;;;20.30;99.90;;;;;;5053590;28;20411;-60
2023/09/28 10:24:11;;;;;;;24.75;4.10;;;20.30;99.90;;;;;;5053235;28;20339;-60
2023/09/28 10:26:40;;;;;;;26.33;4.55;;;20.30;99.90;;;;;;5055957;28;20025;-60
2023/09/28 10:29:07;;;;;;;25.10;4.38;;;20.30;99.90;;;;;;5052545;28;20450;-57
2023/09/28 10:31:41;;;;;;;22.00;5.15;;;20.50;99.90;;;;;;5054624;28;20033;-60
2023/09/28 10:34:08;;;;;;;19.42;4.78;;;20.50;99.90;;;;;;5055970;28;20036;-59
2023/09/28 10:36:37;;;;;;;21.00;4.32;;;20.70;99.90;;;;;;5052136;28;20064;-60
2023/09/28 10:39:15;;;;;;;22.85;4.25;;;20.80;99.90;;;;;;5054216;28;20035;-60
2023/09/28 10:41:49;;;;;;;28.27;5.55;;;20.90;99.90;;;;;;5051617;28;20120;-60
2023/09/28 10:44:21;;;;;;;21.00;4.05;;;21.00;99.90;;;;;;5050526;28;20822;-60
2023/09/28 10:46:51;;;;;;;22.70;4.70;;;21.00;99.90;;;;;;5053353;28;20360;-60
2023/09/28 10:49:24;;;;;;;24.27;4.10;;;21.10;99.90;;;;;;5053213;28;20491;-60
2023/09/28 10:51:51;;;;;;;23.00;3.67;;;21.20;99.90;;;;;;5054008;28;20037;-60
2023/09/28 10:54:17;;;;;;;28.30;6.40;;;21.30;99.90;;;;;;5054910;28;20059;-60
2023/09/28 10:56:43;;;;;;;24.42;4.20;;;21.40;99.90;;;;;;5054573;28;20033;-60
2023/09/28 10:59:11;;;;;;;;;;;21.40;99.90;;;;;;5054310;28;20396;-60
2023/09/28 11:01:46;;;;;;;19.50;3.63;;;21.20;99.90;;;;;;5051866;28;20434;-60
2023/09/28 11:04:13;;;;;;;18.00;3.80;;;21.00;99.90;;;;;;5050391;28;20045;-61
2023/09/28 11:06:43;;;;;;;20.40;4.70;;;20.90;99.90;;;;;;5055164;28;20045;-60
2023/09/28 11:09:09;;;;;;;24.50;4.20;;;20.80;99.90;;;;;;5051427;28;20056;-60
2023/09/28 11:11:39;;;;;;;22.23;4.28;;;20.80;99.90;;;;;;5059498;28;20040;-60
2023/09/28 11:14:06;;;;;;;16.92;3.30;;;20.80;99.90;;;;;;5050021;28;20120;-60
2023/09/28 11:16:38;;;;;;;20.80;3.92;;;20.70;99.90;;;;;;5053368;28;20037;-60
2023/09/28 11:19:04;;;;;;;14.55;4.30;;;20.90;99.90;;;;;;5050251;28;20672;-60
2023/09/28 11:21:30;;;;;;;;;;;21.00;99.90;;;;;;5051277;28;20032;-59
2023/09/28 11:23:56;;;;;;;23.17;3.92;;;21.20;99.90;;;;;;5053671;28;19921;-61
2023/09/28 11:26:22;;;;;;;;;;;21.40;99.90;;;;;;5053726;28;20410;-60
2023/09/28 11:28:52;;;;;;;24.42;4.15;;;21.60;99.90;;;;;;5055391;28;19931;-61
2023/09/28 11:31:18;;;;;;;23.30;4.40;;;21.70;99.90;;;;;;5051445;28;20051;-62
2023/09/28 11:33:46;;;;;;;20.77;3.75;;;21.70;99.90;;;;;;5052285;28;20056;-62
2023/09/28 11:36:17;;;;;;;14.68;3.60;;;21.80;99.90;;;;;;5052691;28;20392;-60
2023/09/28 11:38:44;;;;;;;25.88;4.10;;;21.90;99.90;;;;;;5055912;28;20424;-59
2023/09/28 11:41:11;;;;;;;20.13;3.15;;;21.80;99.90;;;;;;5056103;28;20540;-61
2023/09/28 11:43:53;;;;;;;16.67;3.83;;;21.70;99.90;;;;;;5057781;28;20033;-60
2023/09/28 11:46:23;;;;;;;20.55;4.20;;;21.60;99.90;;;;;;5056975;28;20044;-61
2023/09/28 11:49:04;;;;;;;15.43;3.25;;;21.60;99.90;;;;;;5057965;28;20115;-60
2023/09/28 11:51:32;;;;;;;23.65;3.95;;;21.60;99.90;;;;;;5053099;28;20438;-61
2023/09/28 11:53:58;;;;;;;21.00;4.65;;;21.60;99.90;;;;;;5059475;28;20048;-60
2023/09/28 11:56:23;;;;;;;;;;;21.70;99.90;;;;;;5057557;28;20056;-60
2023/09/28 11:58:49;;;;;;;17.58;4.50;;;21.70;99.90;;;;;;5061378;28;19951;-61
2023/09/28 12:01:15;;;;;;;21.73;4.18;;;21.80;99.90;;;;;;5054965;28;20041;-61
2023/09/28 12:03:40;;;;;;;;;;;21.70;99.90;;;;;;5054540;28;20052;-62
2023/09/28 12:06:06;;;;;;;15.38;3.03;;;21.70;99.90;;;;;;5048179;28;19924;-62
2023/09/28 12:08:32;;;;;;;;;;;21.80;99.90;;;;;;5060635;28;20058;-62
2023/09/28 12:10:57;;;;;;;15.15;3.17;;;21.80;99.90;;;;;;5057797;28;20377;-62
2023/09/28 12:13:26;;;;;;;;;;;21.90;99.90;;;;;;5064167;28;20056;-63
2023/09/28 12:15:54;;;;;;;19.17;3.47;;;21.80;99.90;;;;;;5056763;28;19959;-61
2023/09/28 12:18:20;;;;;;;27.52;4.60;;;21.70;99.90;;;;;;5060537;28;20028;-62
2023/09/28 12:20:46;;;;;;;21.17;3.42;;;21.60;99.90;;;;;;5059490;28;20052;-62
2023/09/28 12:23:11;;;;;;;;;;;21.40;99.90;;;;;;5051079;28;20044;-61
2023/09/28 12:25:37;;;;;;;21.50;4.45;;;21.30;99.90;;;;;;5051572;28;20283;-62
2023/09/28 12:28:03;;;;;;;;;;;21.20;99.90;;;;;;5037020;28;20068;-61
2023/09/28 12:30:30;;;;;;;19.92;3.47;;;21.20;99.90;;;;;;5058564;28;20002;-62
2023/09/28 12:32:57;;;;;;;16.45;4.05;;;21.00;99.90;;;;;;5056371;28;20076;-62
2023/09/28 12:35:23;;;;;;;15.95;3.88;;;21.00;99.90;;;;;;5057344;28;20043;-62
2023/09/28 12:37:49;;;;;;;25.80;4.18;;;21.00;99.90;;;;;;5054600;28;20075;-62
2023/09/28 12:40:17;;;;;;;13.40;3.72;;;21.00;99.90;;;;;;5051577;28;20131;-61
2023/09/28 12:42:43;;;;;;;23.13;4.75;;;21.00;99.90;;;;;;5055832;28;20041;-61
2023/09/28 12:45:09;;;;;;;;;;;20.90;99.90;;;;;;5052018;28;20037;-62
2023/09/28 12:47:34;;;;;;;19.60;4.05;;;20.90;99.90;;;;;;5052251;28;20319;-61
2023/09/28 12:50:02;;;;;;;;;;;20.80;99.90;;;;;;5048687;28;20128;-61